Time;durP1;ratioP1;P1;durP2;ratioP2;P2;SDS_P1;SDS_P2;PMS_P1;PMS_P2;Temp;Humidity;BMP_temperature;BMP_pressure;BME280_temperature;BME280_humidity;BME280_pressure;Samples;Min_cycle;Max_cycle;Signal;HPM_P1;HPM_P2
2023/10/08 00:02:25;;;;;;;;;29.33;25.00;;;;;19.10;60.32;102142.09;4938899;28;45646;-69
2023/10/08 00:04:51;;;;;;;;;29.00;27.33;;;;;19.02;60.42;102134.00;4938704;28;45324;-69
2023/10/08 00:07:21;;;;;;;;;29.00;24.67;;;;;19.09;60.53;102147.66;4921641;28;45307;-68
2023/10/08 00:09:47;;;;;;;;;29.00;29.00;;;;;18.57;60.89;102067.00;4938793;28;45438;-68
2023/10/08 00:12:13;;;;;;;;;27.67;26.33;;;;;19.04;60.95;102145.47;4920873;28;46673;-68
2023/10/08 00:14:44;;;;;;;;;31.00;27.67;;;;;18.94;60.95;102135.81;4938620;28;45295;-69
2023/10/08 00:17:11;;;;;;;;;31.33;28.67;;;;;19.03;60.88;102146.47;4938587;28;45311;-69
2023/10/08 00:19:37;;;;;;;;;28.00;25.33;;;;;18.74;60.91;102094.84;4939820;28;45482;-68
2023/10/08 00:22:06;;;;;;;;;25.33;25.33;;;;;19.01;61.13;102151.16;4938627;28;45749;-68
2023/10/08 00:24:33;;;;;;;;;29.67;27.00;;;;;18.72;61.33;102099.56;4938084;28;45394;-69
2023/10/08 00:27:00;;;;;;;;;15.33;14.67;;;;;18.98;61.71;102156.88;4938757;28;45175;-68
2023/10/08 00:29:26;;;;;;;;;27.33;26.00;;;;;18.89;61.65;102143.56;4938824;28;45581;-68
2023/10/08 00:31:51;;;;;;;;;28.00;27.33;;;;;18.98;61.64;102158.75;4938403;28;46700;-70
2023/10/08 00:34:19;;;;;;;;;29.33;27.33;;;;;18.91;61.27;102145.09;4938523;28;45341;-68
2023/10/08 00:36:49;;;;;;;;;31.67;29.33;;;;;18.96;61.41;102158.91;4938389;28;45425;-71
2023/10/08 00:39:22;;;;;;;;;25.33;21.67;;;;;18.95;61.65;102153.69;4938290;28;45445;-69
2023/10/08 00:41:49;;;;;;;;;24.67;24.33;;;;;18.92;61.79;102154.84;4938179;28;46534;-69
2023/10/08 00:44:28;;;;;;;;;28.33;26.67;;;;;18.30;61.86;102054.63;4938287;28;45485;-69
2023/10/08 00:46:55;;;;;;;;;33.00;28.67;;;;;18.92;61.39;102162.09;4938176;28;45304;-68
2023/10/08 00:49:25;;;;;;;;;26.33;25.33;;;;;18.89;61.72;102154.34;4938715;28;45589;-69
2023/10/08 00:54:47;;;;;;;;;29.33;26.67;;;;;18.81;61.64;102147.06;4938113;28;45495;-70
2023/10/08 00:57:21;;;;;;;;;30.67;26.33;;;;;18.73;62.03;102141.66;4934814;28;45585;-69
2023/10/08 00:59:52;;;;;;;;;29.67;28.00;;;;;18.85;62.07;102164.63;4957845;28;45247;-69
2023/10/08 01:02:21;;;;;;;;;25.33;25.00;;;;;18.73;61.85;102133.59;4957458;28;46552;-68
2023/10/08 01:04:46;;;;;;;;;29.33;28.33;;;;;18.79;62.09;102151.78;4957391;28;45509;-68
2023/10/08 01:07:18;;;;;;;;;27.00;26.33;;;;;18.72;62.01;102140.81;4957426;28;45382;-68
2023/10/08 01:09:49;;;;;;;;;26.00;24.00;;;;;18.70;61.82;102139.31;4957471;28;45299;-69
2023/10/08 01:12:24;;;;;;;;;31.67;28.67;;;;;18.76;62.14;102142.19;4957342;28;46674;-68
2023/10/08 01:14:53;;;;;;;;;27.00;26.33;;;;;18.75;62.19;102147.72;4957473;28;45363;-68
2023/10/08 01:17:26;;;;;;;;;26.00;23.67;;;;;18.71;62.13;102151.75;4957456;28;45228;-68
2023/10/08 01:20:09;;;;;;;;;28.00;26.33;;;;;18.65;62.57;102133.56;4920880;28;45259;-69
2023/10/08 01:22:34;;;;;;;;;32.33;29.00;;;;;18.33;62.41;102081.22;4938567;28;47612;-69
2023/10/08 01:25:01;;;;;;;;;27.00;24.33;;;;;18.60;62.64;102128.59;4940903;28;45410;-69
2023/10/08 01:27:30;;;;;;;;;26.67;25.67;;;;;18.67;62.80;102134.25;4941397;28;45313;-69
2023/10/08 01:30:08;;;;;;;;;26.00;25.00;;;;;18.40;62.59;102093.03;4940121;28;45386;-69
2023/10/08 01:32:34;;;;;;;;;25.00;23.33;;;;;18.64;62.62;102137.28;4941038;28;45810;-70
2023/10/08 01:35:00;;;;;;;;;24.67;21.33;;;;;18.63;62.39;102141.81;4941060;28;45229;-68
2023/10/08 01:37:26;;;;;;;;;23.33;22.33;;;;;18.59;62.63;102128.78;4941362;28;45369;-69
2023/10/08 01:39:52;;;;;;;;;22.67;18.33;;;;;18.52;62.44;102118.66;4941125;28;45557;-68
2023/10/08 01:42:17;;;;;;;;;24.33;21.00;;;;;18.58;62.84;102129.78;4940719;28;51339;-68
2023/10/08 01:44:47;;;;;;;;;21.67;21.33;;;;;18.57;62.46;102128.09;4941216;28;45466;-68
2023/10/08 01:47:14;;;;;;;;;24.67;23.00;;;;;18.55;62.88;102134.50;4939895;28;45434;-68
2023/10/08 01:49:39;;;;;;;;;29.00;23.67;;;;;18.46;62.72;102119.31;4956415;28;45319;-69
2023/10/08 01:52:17;;;;;;;;;26.67;26.33;;;;;18.52;62.87;102120.50;4940919;28;45644;-69
2023/10/08 01:54:44;;;;;;;;;25.33;24.33;;;;;18.46;62.89;102116.63;4940631;28;45364;-68
2023/10/08 01:57:09;;;;;;;;;24.67;24.33;;;;;18.48;62.85;102121.84;4940811;28;45531;-69
2023/10/08 01:59:35;;;;;;;;;24.67;20.33;;;;;18.46;63.20;102113.09;4940903;28;45462;-68
2023/10/08 02:02:00;;;;;;;;;24.33;22.00;;;;;18.46;62.83;102113.09;4940193;28;61214;-68
2023/10/08 02:04:25;;;;;;;;;27.67;24.33;;;;;18.44;63.15;102120.50;4940606;28;45371;-69
2023/10/08 02:06:50;;;;;;;;;27.67;25.67;;;;;18.42;63.42;102112.59;4923339;28;45336;-69
2023/10/08 02:09:16;;;;;;;;;22.33;19.67;;;;;18.39;63.63;102110.19;4940223;28;50156;-68
2023/10/08 02:11:49;;;;;;;;;27.67;26.33;;;;;18.37;63.30;102103.28;4940643;28;45565;-68
2023/10/08 02:14:15;;;;;;;;;20.67;15.33;;;;;18.33;63.45;102097.38;4940677;28;45359;-69
2023/10/08 02:16:42;;;;;;;;;26.67;24.33;;;;;18.30;63.33;102094.16;4947101;28;45294;-69
2023/10/08 02:19:10;;;;;;;;;22.00;21.33;;;;;18.33;63.63;102105.44;4960103;28;45457;-69
2023/10/08 02:21:37;;;;;;;;;26.00;24.00;;;;;18.34;63.37;102103.59;4959666;28;46389;-69
2023/10/08 02:24:03;;;;;;;;;24.33;23.33;;;;;18.29;63.39;102090.63;4959490;28;45319;-69
2023/10/08 02:26:29;;;;;;;;;22.67;22.67;;;;;18.25;62.78;102086.59;4960028;28;45313;-68
2023/10/08 02:28:54;;;;;;;;;21.67;21.33;;;;;18.13;62.71;102063.63;4959601;28;46703;-69
2023/10/08 02:31:20;;;;;;;;;28.00;24.33;;;;;18.14;62.67;102065.31;4958814;28;73135;-69
2023/10/08 02:33:45;;;;;;;;;25.67;23.00;;;;;17.96;62.91;102046.56;4959608;28;45889;-69
2023/10/08 02:36:10;;;;;;;;;19.00;18.33;;;;;18.26;62.62;102104.44;4959168;28;50057;-69
2023/10/08 02:38:38;;;;;;;;;21.33;20.67;;;;;18.12;62.97;102070.88;4959627;28;45524;-68
2023/10/08 02:41:07;;;;;;;;;24.67;20.33;;;;;18.19;62.42;102090.75;4959544;28;45718;-69
2023/10/08 02:43:36;;;;;;;;;21.67;18.67;;;;;18.16;62.56;102093.75;4959397;28;45442;-68
2023/10/08 02:46:06;;;;;;;;;19.33;18.33;;;;;18.04;62.73;102070.00;4956040;28;45458;-68
2023/10/08 02:48:32;;;;;;;;;19.00;17.33;;;;;18.14;62.34;102097.63;4940154;28;45653;-69
2023/10/08 02:51:13;;;;;;;;;19.00;16.33;;;;;18.14;62.24;102092.25;4939956;28;45576;-68
2023/10/08 02:53:41;;;;;;;;;16.67;15.67;;;;;18.04;62.43;102070.84;4939674;28;45352;-69
2023/10/08 02:56:12;;;;;;;;;16.67;15.33;;;;;18.07;62.52;102083.13;4939935;28;45260;-69
2023/10/08 02:58:38;;;;;;;;;17.33;16.67;;;;;18.11;62.18;102097.94;4940056;28;45249;-69
2023/10/08 03:01:04;;;;;;;;;17.67;15.33;;;;;18.11;62.03;102103.34;4939679;28;46651;-69
2023/10/08 03:03:29;;;;;;;;;13.67;12.67;;;;;18.05;62.10;102088.69;4922341;28;45415;-67
2023/10/08 03:05:57;;;;;;;;;18.67;15.33;;;;;18.08;62.01;102090.19;4939469;28;60601;-68
2023/10/08 03:08:23;;;;;;;;;12.33;12.33;;;;;18.03;61.87;102084.47;4939884;28;45273;-68
2023/10/08 03:10:55;;;;;;;;;14.67;14.67;;;;;18.00;61.87;102092.81;4939824;28;45284;-68
2023/10/08 03:13:20;;;;;;;;;14.67;12.33;;;;;17.99;62.10;102091.13;4939692;28;45273;-68
2023/10/08 03:16:08;;;;;;;;;14.33;11.33;;;;;17.92;61.71;102083.72;4939833;28;45240;-68
2023/10/08 03:18:35;;;;;;;;;12.67;10.33;;;;;17.63;61.68;102038.28;4939590;28;45556;-68
2023/10/08 03:21:19;;;;;;;;;13.33;10.67;;;;;17.90;61.70;102088.41;4939360;28;46962;-68
2023/10/08 03:23:47;;;;;;;;;17.00;14.00;;;;;17.96;61.57;102089.63;4939267;28;45515;-68
2023/10/08 03:26:33;;;;;;;;;14.67;14.00;;;;;17.92;61.20;102083.72;4939443;28;45473;-68
2023/10/08 03:29:15;;;;;;;;;11.33;11.00;;;;;17.97;61.74;102090.47;4939803;28;45363;-69
2023/10/08 03:34:13;;;;;;;;;13.67;12.00;;;;;17.90;61.40;102091.09;4939401;28;45233;-68
2023/10/08 03:36:44;;;;;;;;;14.33;12.33;;;;;17.89;61.73;102094.81;4939258;28;45330;-69
2023/10/08 03:39:13;;;;;;;;;15.00;12.33;;;;;17.85;61.70;102097.97;4939451;28;45503;-69
2023/10/08 03:41:39;;;;;;;;;16.33;13.33;;;;;17.85;61.55;102097.97;4939213;28;45758;-68
2023/10/08 03:44:10;;;;;;;;;16.33;11.67;;;;;17.81;61.62;102097.41;4939065;28;45316;-68
2023/10/08 03:46:39;;;;;;;;;13.33;13.33;;;;;17.77;61.60;102095.22;4947905;28;45232;-69
2023/10/08 03:49:11;;;;;;;;;12.33;11.33;;;;;17.51;61.42;102053.00;4957900;28;45414;-69
2023/10/08 03:51:39;;;;;;;;;11.33;11.33;;;;;17.69;62.00;102087.94;4958241;28;46524;-69
2023/10/08 03:54:15;;;;;;;;;16.33;16.33;;;;;17.81;61.96;102113.56;4958283;28;45416;-68
2023/10/08 03:56:48;;;;;;;;;10.33;8.33;;;;;17.79;62.14;102101.28;4956872;28;45307;-68
2023/10/08 03:59:33;;;;;;;;;21.00;19.67;;;;;17.74;62.65;102096.38;4958574;28;45453;-69
2023/10/08 04:04:51;;;;;;;;;24.00;21.00;;;;;17.65;63.97;102100.00;4958536;28;45496;-69
2023/10/08 04:12:34;;;;;;;;;27.50;24.50;;;;;17.62;63.76;102103.00;4958270;28;46651;-68
2023/10/08 04:15:07;;;;;;;;;27.33;25.33;;;;;17.69;64.35;102112.16;4957995;28;45513;-68
2023/10/08 04:17:45;;;;;;;;;27.33;23.33;;;;;17.69;64.14;102104.09;4957317;28;45561;-69
2023/10/08 04:20:33;;;;;;;;;23.33;21.33;;;;;17.60;64.09;102089.69;4958310;28;45478;-69
2023/10/08 04:23:04;;;;;;;;;22.00;19.00;;;;;17.67;64.22;102103.38;4957736;28;47629;-68
2023/10/08 04:25:30;;;;;;;;;28.33;26.00;;;;;17.60;64.17;102096.91;4957801;28;45353;-68
2023/10/08 04:27:59;;;;;;;;;23.67;21.67;;;;;17.60;64.13;102088.84;4940629;28;45521;-68
2023/10/08 04:30:33;;;;;;;;;26.33;25.33;;;;;17.26;64.11;102033.16;4958327;28;45584;-69
2023/10/08 04:33:06;;;;;;;;;29.67;22.00;;;;;17.66;64.50;102093.63;4957819;28;47029;-69
2023/10/08 04:35:55;;;;;;;;;23.33;23.33;;;;;17.63;64.32;102100.16;4957830;28;45567;-69
2023/10/08 04:38:26;;;;;;;;;26.33;24.33;;;;;17.52;64.67;102099.56;4957758;28;45271;-69
2023/10/08 04:40:52;;;;;;;;;26.67;22.67;;;;;17.49;64.85;102099.88;4958210;28;45244;-69
2023/10/08 04:43:27;;;;;;;;;23.67;22.00;;;;;17.38;65.19;102083.97;4957527;28;46640;-69
2023/10/08 04:46:05;;;;;;;;;27.67;24.00;;;;;17.42;65.10;102099.66;4953944;28;45482;-69
2023/10/08 04:48:32;;;;;;;;;24.67;20.33;;;;;17.33;65.28;102084.44;4938322;28;45332;-69
2023/10/08 04:50:59;;;;;;;;;25.00;25.00;;;;;17.41;64.99;102100.63;4938762;28;45514;-70
2023/10/08 04:53:32;;;;;;;;;21.33;21.33;;;;;17.30;64.86;102096.34;4920652;28;46535;-69
2023/10/08 04:56:07;;;;;;;;;26.00;26.00;;;;;17.26;65.53;102100.34;4937785;28;45541;-69
2023/10/08 04:58:36;;;;;;;;;25.33;23.33;;;;;17.18;65.63;102089.50;4940338;28;45301;-69
2023/10/08 05:01:18;;;;;;;;;20.33;18.33;;;;;17.24;65.53;102091.59;4941891;28;45235;-69
2023/10/08 05:06:50;;;;;;;;;22.67;21.33;;;;;17.13;65.61;102090.97;4941643;28;45329;-68
2023/10/08 05:17:09;;;;;;;;;20.67;20.67;;;;;17.17;66.08;102098.56;4952930;28;45490;-69
2023/10/08 05:30:16;;;;;;;;;25.67;23.00;;;;;17.17;66.10;102109.31;4960529;28;45399;-68
2023/10/08 05:38:22;;;;;;;;;22.00;21.67;;;;;17.17;66.42;102100.41;4948125;28;45391;-68
2023/10/08 05:43:33;;;;;;;;;24.00;24.00;;;;;16.80;66.62;102062.94;4945139;28;45583;-68
2023/10/08 05:46:19;;;;;;;;;24.00;22.33;;;;;17.09;66.45;102106.56;4950006;28;46961;-68
2023/10/08 05:48:50;;;;;;;;;20.67;19.67;;;;;17.07;66.31;102113.94;4948111;28;45241;-68
2023/10/08 05:51:33;;;;;;;;;19.00;17.33;;;;;17.07;66.15;102097.81;4951228;28;45248;-68
2023/10/08 05:53:59;;;;;;;;;23.00;22.33;;;;;17.08;65.94;102098.66;4949955;28;45557;-68
2023/10/08 05:56:52;;;;;;;;;25.00;21.67;;;;;17.10;65.96;102108.25;4947902;28;45537;-69
2023/10/08 05:59:18;;;;;;;;;19.33;19.33;;;;;17.04;66.35;102106.19;4955419;28;45314;-68
2023/10/08 06:01:46;;;;;;;;;24.67;19.67;;;;;17.11;66.47;102117.16;4947849;28;45540;-68
2023/10/08 06:07:12;;;;;;;;;28.67;26.33;;;;;17.10;66.29;102118.16;4948072;28;45952;-71
2023/10/08 06:09:39;;;;;;;;;21.67;20.00;;;;;17.01;66.13;102111.84;4947339;28;45542;-68
2023/10/08 06:12:10;;;;;;;;;19.67;19.00;;;;;17.07;66.10;102127.38;4940697;28;45357;-68
2023/10/08 06:14:52;;;;;;;;;23.00;20.33;;;;;17.09;66.13;102105.72;4948218;28;45601;-69
2023/10/08 06:17:34;;;;;;;;;23.33;21.33;;;;;17.16;66.00;102129.13;4940374;28;46590;-68
2023/10/08 06:20:09;;;;;;;;;19.67;18.00;;;;;17.18;65.59;102121.75;4947388;28;45490;-68
2023/10/08 06:22:35;;;;;;;;;22.00;22.00;;;;;17.13;65.64;102124.06;4940611;28;46188;-69
2023/10/08 06:25:16;;;;;;;;;26.00;22.00;;;;;17.15;65.32;102116.69;4947912;28;45482;-70
2023/10/08 06:27:44;;;;;;;;;23.33;20.67;;;;;17.22;65.50;102133.03;4950649;28;45820;-68
2023/10/08 06:30:16;;;;;;;;;23.00;21.33;;;;;16.93;65.46;102084.91;4949621;28;46230;-69
2023/10/08 06:32:42;;;;;;;;;22.00;19.33;;;;;17.23;65.28;102130.22;4945069;28;45498;-68
2023/10/08 06:35:09;;;;;;;;;20.00;18.33;;;;;16.98;65.20;102078.06;4942508;28;45552;-70
2023/10/08 06:37:34;;;;;;;;;23.33;22.67;;;;;17.28;65.18;102130.59;4946152;28;47771;-69
2023/10/08 06:40:00;;;;;;;;;25.33;21.00;;;;;17.02;65.32;102081.31;4939604;28;45536;-68
2023/10/08 06:42:27;;;;;;;;;21.33;20.33;;;;;17.39;65.31;102140.28;4949613;28;45494;-68
2023/10/08 06:44:53;;;;;;;;;19.00;17.67;;;;;17.47;64.87;102142.19;4949665;28;45487;-68
2023/10/08 06:47:18;;;;;;;;;21.00;18.67;;;;;16.80;64.93;102015.44;4954205;28;45776;-68
2023/10/08 06:49:44;;;;;;;;;21.33;20.33;;;;;17.54;64.72;102129.81;4950438;28;45459;-68
2023/10/08 06:52:13;;;;;;;;;21.67;20.67;;;;;17.63;64.35;102135.13;4942900;28;45270;-68
2023/10/08 06:54:38;;;;;;;;;23.67;20.67;;;;;17.72;64.36;102136.03;4938220;28;45330;-69
2023/10/08 06:57:04;;;;;;;;;25.00;20.00;;;;;17.88;63.68;102154.16;4949481;28;66171;-69
2023/10/08 06:59:31;;;;;;;;;25.67;22.33;;;;;17.94;63.52;102157.03;4942955;28;45325;-69
2023/10/08 07:01:58;;;;;;;;;25.67;23.00;;;;;18.00;63.46;102147.50;4940307;28;45965;-68
2023/10/08 07:04:24;;;;;;;;;21.67;21.67;;;;;18.08;62.77;102152.09;4947301;28;45524;-69
2023/10/08 07:06:50;;;;;;;;;26.33;21.00;;;;;18.12;62.73;102148.09;4946962;28;45264;-69
2023/10/08 07:09:23;;;;;;;;;22.33;21.33;;;;;18.22;62.56;102148.81;4946882;28;45405;-77
2023/10/08 07:11:54;;;;;;;;;22.00;21.00;;;;;18.31;62.24;102134.38;4947398;28;45230;-68
2023/10/08 07:14:27;;;;;;;;;21.33;21.33;;;;;18.21;61.85;102083.34;4939441;28;45533;-72
2023/10/08 07:16:54;;;;;;;;;21.00;20.33;;;;;18.89;60.93;102152.50;4945840;28;45934;-68
2023/10/08 07:19:23;;;;;;;;;21.00;21.00;;;;;19.20;60.41;102157.25;4939884;28;45655;-69
2023/10/08 07:21:53;;;;;;;;;19.67;19.67;;;;;19.50;59.36;102151.25;4943914;28;45323;-69
2023/10/08 07:24:21;;;;;;;;;20.67;20.67;;;;;19.49;58.62;102103.69;4954170;28;45591;-74
2023/10/08 07:26:47;;;;;;;;;26.33;20.00;;;;;20.08;57.66;102161.00;4954824;28;45799;-68
2023/10/08 07:29:19;;;;;;;;;22.00;20.00;;;;;20.38;57.32;102161.25;4953362;28;45458;-69
2023/10/08 07:31:48;;;;;;;;;21.33;20.67;;;;;20.66;56.23;102162.53;4928791;28;45289;-68
2023/10/08 07:36:50;;;;;;;;;30.67;23.67;;;;;21.02;54.55;102148.47;4943558;28;45636;-68
2023/10/08 07:41:58;;;;;;;;;28.00;24.33;;;;;21.49;53.67;102157.31;4943571;28;45464;-68
2023/10/08 07:44:28;;;;;;;;;21.67;19.33;;;;;21.66;53.28;102149.91;4943286;28;45655;-69
2023/10/08 07:46:54;;;;;;;;;23.00;21.67;;;;;21.81;52.40;102133.66;4942092;28;45835;-69
2023/10/08 07:49:20;;;;;;;;;21.33;19.33;;;;;21.76;52.13;102100.91;4949824;28;46757;-69
2023/10/08 07:51:52;;;;;;;;;24.33;21.00;;;;;22.24;51.79;102147.50;4939572;28;45257;-69
2023/10/08 07:54:29;;;;;;;;;27.33;22.33;;;;;22.37;51.11;102128.69;4946222;28;45375;-69
2023/10/08 07:57:18;;;;;;;;;21.33;21.33;;;;;22.69;50.36;102144.56;4948061;28;45303;-69
2023/10/08 07:59:48;;;;;;;;;22.67;21.00;;;;;22.75;49.64;102103.13;4941120;28;45485;-69
2023/10/08 08:02:15;;;;;;;;;24.67;21.67;;;;;23.19;49.25;102150.13;4945893;28;45327;-69
2023/10/08 08:04:50;;;;;;;;;24.00;20.33;;;;;23.31;48.51;102148.59;4946343;28;45398;-69
2023/10/08 08:07:16;;;;;;;;;21.67;20.00;;;;;23.42;47.77;102139.09;4933153;28;47542;-69
2023/10/08 08:09:51;;;;;;;;;24.00;20.33;;;;;23.74;47.50;102156.75;4941668;28;45301;-70
2023/10/08 08:12:19;;;;;;;;;24.67;22.00;;;;;23.89;47.32;102157.50;4946010;28;45300;-69
2023/10/08 08:14:44;;;;;;;;;23.00;20.33;;;;;23.90;46.80;102138.28;4946407;28;45730;-68
2023/10/08 08:17:15;;;;;;;;;27.33;25.00;;;;;24.09;46.27;102134.00;4940965;28;45430;-69
2023/10/08 08:19:44;;;;;;;;;20.00;18.00;;;;;24.46;44.90;102164.56;4947039;28;45534;-69
2023/10/08 08:22:15;;;;;;;;;19.00;13.33;;;;;24.50;44.66;102138.66;4947253;28;45537;-75
2023/10/08 08:24:44;;;;;;;;;18.33;16.67;;;;;24.76;44.32;102160.50;4945567;28;45328;-69
2023/10/08 08:27:53;;;;;;;;;18.67;17.33;;;;;24.99;43.54;102164.78;4945843;28;46567;-69
2023/10/08 08:30:10;;;;;;;;;18.00;16.33;;;;;25.18;42.80;102151.25;4937789;28;45500;-69
2023/10/08 08:32:39;;;;;;;;;17.67;17.33;;;;;25.46;42.71;102166.59;4945439;28;45335;-69
2023/10/08 08:35:09;;;;;;;;;21.33;19.67;;;;;25.56;42.27;102145.22;4938219;28;45478;-68
2023/10/08 08:37:41;;;;;;;;;19.00;19.00;;;;;25.83;41.73;102161.56;4947212;28;46521;-69
2023/10/08 08:40:19;;;;;;;;;20.67;18.00;;;;;26.03;41.20;102146.91;4948706;28;45558;-69
2023/10/08 08:42:52;;;;;;;;;24.33;21.00;;;;;26.31;40.41;102159.41;4948948;28;45417;-68
2023/10/08 08:45:27;;;;;;;;;20.67;20.00;;;;;26.44;40.57;102164.03;4947661;28;45498;-68
2023/10/08 08:47:53;;;;;;;;;18.00;18.00;;;;;26.39;40.48;102156.47;4937741;28;46770;-69
2023/10/08 08:50:21;;;;;;;;;18.67;18.00;;;;;26.33;41.08;102157.31;4944771;28;45431;-69
2023/10/08 08:52:47;;;;;;;;;19.33;19.33;;;;;26.30;41.47;102147.69;4945614;28;45581;-69
2023/10/08 08:55:16;;;;;;;;;20.67;19.00;;;;;26.26;40.91;102148.31;4943661;28;45514;-69
2023/10/08 08:57:43;;;;;;;;;19.67;17.00;;;;;26.17;40.65;102135.94;4954141;28;46318;-68
2023/10/08 09:00:11;;;;;;;;;20.00;20.00;;;;;26.34;40.86;102158.97;4949382;28;45418;-69
2023/10/08 09:02:40;;;;;;;;;24.00;23.00;;;;;26.34;40.53;102145.34;4948770;28;45300;-68
2023/10/08 09:05:25;;;;;;;;;19.67;19.00;;;;;26.46;40.33;102145.56;4948915;28;45200;-67
2023/10/08 09:08:03;;;;;;;;;20.00;19.00;;;;;26.55;39.90;102147.81;4938769;28;47436;-69
2023/10/08 09:10:32;;;;;;;;;19.00;19.00;;;;;26.62;39.74;102155.97;4948409;28;45468;-68
2023/10/08 09:12:59;;;;;;;;;19.67;19.00;;;;;26.62;39.31;102155.97;4940551;28;45245;-68
2023/10/08 09:15:25;;;;;;;;;17.67;16.33;;;;;26.74;39.47;102151.53;4944461;28;45567;-69
2023/10/08 09:17:52;;;;;;;;;19.33;17.33;;;;;26.85;38.55;102144.56;4952875;28;46830;-69
2023/10/08 09:20:19;;;;;;;;;15.67;15.00;;;;;27.15;38.52;102158.47;4940280;28;45664;-69
2023/10/08 09:22:47;;;;;;;;;14.00;13.25;;;;;27.14;37.90;102100.28;4956135;28;45361;-68
2023/10/08 09:25:22;;;;;;;;;17.67;17.33;;;;;27.72;36.89;102148.41;4946946;28;45446;-68
2023/10/08 09:27:55;;;;;;;;;14.00;13.33;;;;;28.01;36.37;102147.69;4944975;28;47046;-69
2023/10/08 09:30:21;;;;;;;;;14.00;13.67;;;;;28.23;35.99;102128.94;4937897;28;45540;-69
2023/10/08 09:32:49;;;;;;;;;12.00;12.00;;;;;28.24;35.21;102110.66;4937853;28;45452;-68
2023/10/08 09:35:15;;;;;;;;;12.00;11.00;;;;;28.52;35.82;102141.06;4945093;28;45532;-69
2023/10/08 09:37:41;;;;;;;;;15.00;12.67;;;;;28.67;35.40;102149.72;4937730;28;46481;-68
2023/10/08 09:40:11;;;;;;;;;14.67;14.67;;;;;28.57;35.38;102132.16;4944136;28;45668;-69
2023/10/08 09:42:38;;;;;;;;;12.00;12.00;;;;;28.52;35.08;102149.25;4948285;28;45464;-68
2023/10/08 09:45:08;;;;;;;;;11.00;11.00;;;;;28.21;35.66;102132.97;4951019;28;45599;-68
2023/10/08 09:47:38;;;;;;;;;10.33;10.00;;;;;28.08;35.74;102134.81;4949634;28;47165;-69
2023/10/08 09:50:07;;;;;;;;;11.00;10.00;;;;;27.81;36.48;102133.38;4946833;28;45300;-69
2023/10/08 09:52:50;;;;;;;;;10.00;9.00;;;;;27.61;36.71;102132.69;4943169;28;45329;-69
2023/10/08 09:55:18;;;;;;;;;16.00;15.33;;;;;27.37;37.70;102134.38;4948477;28;45560;-69
2023/10/08 09:57:43;;;;;;;;;11.67;11.67;;;;;27.11;37.44;102128.03;4940551;28;46151;-69
2023/10/08 10:00:18;;;;;;;;;13.33;11.67;;;;;26.78;38.26;102125.47;4940776;28;45569;-68
2023/10/08 10:02:44;;;;;;;;;12.00;10.00;;;;;26.48;38.96;102127.94;4940830;28;45412;-69
2023/10/08 10:05:20;;;;;;;;;11.00;9.00;;;;;26.28;38.56;102130.69;4940930;28;45621;-69
2023/10/08 10:07:48;;;;;;;;;11.25;11.25;;;;;26.12;39.22;102128.44;4948242;28;46647;-68
2023/10/08 10:10:31;;;;;;;;;9.25;8.25;;;;;25.88;39.31;102118.22;4946824;28;46734;-68
2023/10/08 10:13:04;;;;;;;;;8.25;7.75;;;;;25.71;39.32;102121.38;4941384;28;45351;-69
2023/10/08 10:15:38;;;;;;;;;9.50;9.50;;;;;25.50;40.13;102101.66;4950793;28;45437;-69
2023/10/08 10:18:13;;;;;;;;;11.00;11.00;;;;;25.39;40.09;102119.44;4956177;28;46720;-69
2023/10/08 10:21:02;;;;;;;;;10.67;10.00;;;;;25.23;40.27;102128.00;4940238;28;45517;-70
2023/10/08 10:23:42;;;;;;;;;6.25;5.25;;;;;25.00;40.78;102120.22;4935357;28;45509;-68
2023/10/08 10:26:31;;;;;;;;;13.33;13.00;;;;;24.94;41.20;102130.03;4950577;28;45434;-70
2023/10/08 10:29:09;;;;;;;;;13.67;8.33;;;;;24.93;41.76;102130.22;4942466;28;46102;-72
2023/10/08 10:31:34;;;;;;;;;12.50;9.75;;;;;24.89;42.14;102132.53;4944809;28;45315;-69
2023/10/08 10:34:05;;;;;;;;;8.67;7.33;;;;;24.63;41.78;102099.78;4950627;28;45468;-69
2023/10/08 10:36:31;;;;;;;;;12.00;12.00;;;;;24.73;41.79;102132.88;4950875;28;45642;-69
2023/10/08 10:38:57;;;;;;;;;10.00;10.00;;;;;24.63;41.94;102130.56;4943122;28;46636;-69
2023/10/08 10:41:22;;;;;;;;;13.75;9.25;;;;;24.55;41.86;102126.13;4949853;28;45268;-69
2023/10/08 10:43:52;;;;;;;;;9.25;9.25;;;;;24.41;41.96;102107.22;4950634;28;49688;-68
2023/10/08 10:46:30;;;;;;;;;10.00;9.00;;;;;24.52;42.56;102122.97;4948041;28;45476;-68
2023/10/08 10:51:59;;;;;;;;;11.00;10.00;;;;;24.47;42.21;102114.59;4933236;28;45606;-68
2023/10/08 10:54:25;;;;;;;;;11.67;9.33;;;;;24.43;42.27;102111.44;4941291;28;45484;-69
2023/10/08 10:57:05;;;;;;;;;12.00;11.67;;;;;24.50;41.97;102134.06;4948532;28;45517;-68
2023/10/08 10:59:37;;;;;;;;;11.75;9.50;;;;;24.46;42.10;102116.47;4946412;28;45975;-69
2023/10/08 11:02:08;;;;;;;;;10.50;8.75;;;;;24.40;41.90;102111.00;4948143;28;45711;-69
2023/10/08 11:04:47;;;;;;;;;9.67;9.67;;;;;24.44;42.44;102126.72;4941175;28;45498;-69
2023/10/08 11:07:17;;;;;;;;;11.00;10.00;;;;;24.30;42.01;102099.66;4954850;28;45209;-69
2023/10/08 11:09:44;;;;;;;;;14.00;14.00;;;;;24.42;42.11;102117.91;4942677;28;47439;-69
2023/10/08 11:12:11;;;;;;;;;15.33;11.00;;;;;24.41;42.57;102127.09;4939100;28;45511;-69
2023/10/08 11:14:42;;;;;;;;;11.33;9.33;;;;;24.44;42.46;102129.44;4949123;28;45509;-69
2023/10/08 11:17:17;;;;;;;;;14.75;12.00;;;;;24.39;42.73;102117.47;4946874;28;45243;-69
2023/10/08 11:19:48;;;;;;;;;10.33;10.33;;;;;24.22;42.81;102087.88;4932658;28;46571;-71
2023/10/08 11:22:18;;;;;;;;;9.50;8.25;;;;;24.27;42.42;102084.56;4949375;28;45236;-68
2023/10/08 11:24:47;;;;;;;;;10.50;9.50;;;;;24.14;42.01;102069.03;4938685;28;45274;-70
2023/10/08 11:27:17;;;;;;;;;9.67;9.33;;;;;24.18;42.34;102066.75;4930529;28;45204;-69
2023/10/08 11:29:56;;;;;;;;;9.00;9.00;;;;;24.46;41.77;102116.47;4947418;28;46588;-70
2023/10/08 11:32:25;;;;;;;;;8.67;8.67;;;;;24.39;42.08;102101.16;4945787;28;45497;-70
2023/10/08 11:34:55;;;;;;;;;10.67;9.00;;;;;24.44;42.38;102113.13;4942164;28;45334;-69
2023/10/08 11:37:27;;;;;;;;;13.33;12.00;;;;;24.16;42.84;102060.69;4950277;28;45617;-70
2023/10/08 11:39:58;;;;;;;;;10.33;8.00;;;;;24.47;42.44;102111.88;4946101;28;46725;-68
2023/10/08 11:45:17;;;;;;;;;9.67;9.67;;;;;24.18;41.75;102066.75;4946140;28;45335;-67
2023/10/08 11:47:48;;;;;;;;;9.67;8.33;;;;;24.38;41.77;102086.72;4947605;28;45506;-68
2023/10/08 11:50:17;;;;;;;;;8.67;6.33;;;;;24.46;42.25;102102.88;4956300;28;45617;-68
2023/10/08 11:52:42;;;;;;;;;7.67;7.67;;;;;24.45;42.45;102086.78;4941368;28;45605;-68
2023/10/08 11:55:09;;;;;;;;;9.33;9.00;;;;;24.45;42.79;102086.78;4948770;28;45372;-68
2023/10/08 11:57:45;;;;;;;;;9.67;9.67;;;;;24.50;41.98;102089.72;4948841;28;45536;-69
2023/10/08 12:00:20;;;;;;;;;9.67;7.00;;;;;24.48;42.15;102084.50;4935039;28;48373;-69
2023/10/08 12:02:49;;;;;;;;;5.75;5.75;;;;;24.50;42.02;102092.44;4945979;28;45481;-69
2023/10/08 12:05:23;;;;;;;;;6.25;6.25;;;;;24.46;42.19;102074.88;4942793;28;45327;-68
2023/10/08 12:07:50;;;;;;;;;8.75;8.75;;;;;24.51;41.43;102075.06;4938429;28;45450;-68
2023/10/08 12:10:21;;;;;;;;;10.33;9.00;;;;;24.35;41.25;102043.66;4945536;28;45865;-68
2023/10/08 12:12:48;;;;;;;;;7.50;6.00;;;;;24.53;41.53;102073.00;4939597;28;45286;-69
2023/10/08 12:15:19;;;;;;;;;17.33;16.33;;;;;24.54;41.37;102072.78;4941938;28;45430;-68
2023/10/08 12:18:08;;;;;;;;;11.00;11.00;;;;;24.48;41.59;102032.00;4941781;28;45473;-68
2023/10/08 12:20:36;;;;;;;;;11.67;10.67;;;;;24.60;41.45;102049.38;4945775;28;45498;-68
2023/10/08 12:23:02;;;;;;;;;9.33;9.33;;;;;24.62;41.32;102044.56;4946238;28;45568;-67
2023/10/08 12:25:27;;;;;;;;;10.33;10.33;;;;;24.55;41.38;102028.25;4942718;28;45550;-68